Maersk Douglas — DCPL2 — position and weather

sailwx.info

Track history (hours):
 
Tides and Currents Weather Stations Pressure Air Temp Water Temp Dewpoint Dewpoint Depression Visibility Wind Speed Wind Dir Waves Ship Positions

Maersk Douglas

Last reported at 2017-Dec-17 10:00 UTC. Time now 2017-Dec-17 10:17 UTC.
Position N 53°33' E 009°58'.

Length 294.1 m; beam 32.2 m; draft 13.7 m.

Type: Tug. MMSI: 211710650.

Date/timePositionNaut miles runAvg speedWind from/ knotsBaromVisibWave heightAir tempDewpointWater temp
2017-Dec-17 10:00N 53°33' E 009°58'0 0.0
2017-Dec-17 09:30N 53°33' E 009°58'0 0.0
2017-Dec-17 09:00N 53°33' E 009°58'0 0.0
2017-Dec-17 08:30N 53°33' E 009°58'0 0.0
2017-Dec-17 08:00N 53°33' E 009°58'0 0.0
2017-Dec-17 07:30N 53°33' E 009°58'0 0.0
2017-Dec-17 07:00N 53°33' E 009°58'0 0.0
2017-Dec-17 06:30N 53°33' E 009°58'0 0.0
2017-Dec-17 06:01N 53°33' E 009°58'0 0.0
2017-Dec-17 05:30N 53°33' E 009°58'0 0.0
2017-Dec-17 05:00N 53°33' E 009°58'0 0.0
2017-Dec-17 04:30N 53°33' E 009°58'0 0.0
2017-Dec-17 04:00N 53°33' E 009°58'0 0.0
2017-Dec-17 03:30N 53°33' E 009°58'0 0.0
2017-Dec-17 03:00N 53°33' E 009°58'0 0.0
2017-Dec-17 02:30N 53°33' E 009°58'0 0.0
2017-Dec-17 02:00N 53°33' E 009°58'0 0.0
2017-Dec-17 01:30N 53°33' E 009°58'0 0.0
2017-Dec-17 01:00N 53°33' E 009°58'0 0.0
2017-Dec-17 00:30N 53°33' E 009°58'0 0.0
2017-Dec-17 00:00N 53°33' E 009°58'0 0.0
2017-Dec-16 23:30N 53°33' E 009°58'0 0.0
2017-Dec-16 23:01N 53°33' E 009°58'0 0.0
2017-Dec-16 22:30N 53°33' E 009°58'0 0.0
2017-Dec-16 22:00N 53°33' E 009°58'0 0.0
2017-Dec-16 21:31N 53°33' E 009°58'0 0.0
2017-Dec-16 21:01N 53°33' E 009°58'0 0.0
2017-Dec-16 20:30N 53°33' E 009°58'0 0.0
2017-Dec-16 20:00N 53°33' E 009°58'3 6.4
2017-Dec-16 19:31N 53°30' E 009°57'0 0.4
2017-Dec-16 19:00N 53°30' E 009°57'3 6.7
2017-Dec-16 18:30N 53°32' E 009°54'1 1.7
2017-Dec-16 18:01N 53°33' E 009°55'0 0.2
2017-Dec-16 17:31N 53°33' E 009°55'0 0.0
2017-Dec-16 17:00N 53°33' E 009°55'0 0.0
2017-Dec-16 16:30N 53°33' E 009°55'0 0.0
2017-Dec-16 16:00N 53°33' E 009°55'0 0.0
2017-Dec-16 15:30N 53°33' E 009°55'0 0.0
2017-Dec-16 15:00N 53°33' E 009°55'0 0.0
2017-Dec-16 14:30N 53°33' E 009°55'2 3.7
2017-Dec-16 14:00N 53°31' E 009°56'1 2.1
2017-Dec-16 13:31N 53°30' E 009°57'3 5.3
2017-Dec-16 13:01N 53°33' E 009°57'0 0.8
2017-Dec-16 12:30N 53°32' E 009°56'0 0.7
2017-Dec-16 12:00N 53°33' E 009°55'0 0.6
2017-Dec-16 11:30N 53°33' E 009°56'1 2.1
2017-Dec-16 11:00N 53°32' E 009°57'1 2.9
2017-Dec-16 10:31N 53°33' E 009°55'0 0.2
2017-Dec-16 10:00N 53°33' E 009°55'0 0.0
2017-Dec-16 09:30N 53°33' E 009°55'0 0.0
2017-Dec-16 09:00N 53°33' E 009°55'0 0.0
2017-Dec-16 08:30N 53°33' E 009°55'0 0.0
2017-Dec-16 08:00N 53°33' E 009°55'0 0.0
2017-Dec-16 07:30N 53°33' E 009°55'2 3.8
2017-Dec-16 07:00N 53°31' E 009°57'2 4.1
2017-Dec-16 06:30N 53°29' E 009°59'1 2.0
2017-Dec-16 06:00N 53°30' E 009°58'1 2.4
2017-Dec-16 05:31N 53°31' E 009°57'2 3.8
2017-Dec-16 05:00N 53°32' E 009°54'1 1.3
2017-Dec-16 04:30N 53°33' E 009°55'0 0.0
2017-Dec-16 04:00N 53°33' E 009°55'0 0.0
2017-Dec-16 03:30N 53°33' E 009°55'0 0.0
2017-Dec-16 03:00N 53°33' E 009°55'0 0.0
2017-Dec-16 02:31N 53°33' E 009°55'0 0.0
2017-Dec-16 02:00N 53°33' E 009°55'0 0.0
2017-Dec-16 01:30N 53°33' E 009°55'1 2.4
2017-Dec-16 01:00N 53°32' E 009°56'2 3.2
2017-Dec-16 00:30N 53°30' E 009°57'0 0.0
2017-Dec-16 00:00N 53°30' E 009°57'3 5.3
2017-Dec-15 23:30N 53°33' E 009°58'0 0.0
2017-Dec-15 23:00N 53°33' E 009°58'0 0.0
2017-Dec-15 22:30N 53°33' E 009°58'0 0.0
2017-Dec-15 22:00N 53°33' E 009°58'0 0.0
2017-Dec-15 21:30N 53°33' E 009°58'0 0.0
2017-Dec-15 21:00N 53°33' E 009°58'0 0.0
2017-Dec-15 20:30N 53°33' E 009°58'0 0.0
2017-Dec-15 20:00N 53°33' E 009°58'0 0.0
2017-Dec-15 19:30N 53°33' E 009°58'0 0.0
2017-Dec-15 19:00N 53°33' E 009°58'0 0.0
2017-Dec-15 18:30N 53°33' E 009°58'0 0.0
2017-Dec-15 18:00N 53°33' E 009°58'0 0.0
2017-Dec-15 17:30N 53°33' E 009°58'0 0.0
2017-Dec-15 17:00N 53°33' E 009°58'0 0.0
2017-Dec-15 16:30N 53°33' E 009°58'0 0.0
2017-Dec-15 16:00N 53°33' E 009°58'0 0.0
2017-Dec-15 15:30N 53°33' E 009°58'0 0.0
2017-Dec-15 15:00N 53°33' E 009°58'0 0.0
2017-Dec-15 14:30N 53°33' E 009°58'0 0.0
2017-Dec-15 14:00N 53°33' E 009°58'0 0.0
2017-Dec-15 13:30N 53°33' E 009°58'0 0.0
2017-Dec-15 13:00N 53°33' E 009°58'0 0.0
2017-Dec-15 12:30N 53°33' E 009°58'0 0.0
2017-Dec-15 12:00N 53°33' E 009°58'1 1.5
2017-Dec-15 11:30N 53°32' E 009°58'0 0.0
2017-Dec-15 11:00N 53°32' E 009°58'0 0.0
2017-Dec-15 10:30N 53°32' E 009°58'0 0.0
2017-Dec-15 10:00N 53°32' E 009°58'0 0.0
2017-Dec-15 09:30N 53°32' E 009°58'0 0.0
2017-Dec-15 09:00N 53°32' E 009°58'0 0.0
2017-Dec-15 08:30N 53°32' E 009°58'0 0.0
2017-Dec-15 08:00N 53°32' E 009°58'0 0.0
2017-Dec-15 07:30N 53°32' E 009°58'0 0.0
2017-Dec-15 07:00N 53°32' E 009°58'0 0.0
2017-Dec-15 06:30N 53°32' E 009°58'0 0.0
2017-Dec-15 06:00N 53°32' E 009°58'0 0.0
2017-Dec-15 05:30N 53°32' E 009°58'0 0.0
2017-Dec-15 05:00N 53°32' E 009°58'0 0.0
2017-Dec-15 04:30N 53°32' E 009°58'0 0.0
2017-Dec-15 04:00N 53°32' E 009°58'0 0.0
2017-Dec-15 02:31N 53°32' E 009°58'0 0.0
2017-Dec-15 01:00N 53°32' E 009°58'0 0.0
2017-Dec-15 00:30N 53°32' E 009°58'0 0.0
2017-Dec-14 18:31N 53°32' E 009°58'0 0.0
2017-Dec-14 18:00N 53°32' E 009°58'0 0.0
2017-Dec-14 17:30N 53°32' E 009°58'0 0.0
2017-Dec-14 17:00N 53°32' E 009°58'0 0.0
2017-Dec-14 16:30N 53°32' E 009°58'0 0.0
2017-Dec-14 16:00N 53°32' E 009°58'0 0.0
2017-Dec-14 15:00N 53°32' E 009°58'0 0.0
2017-Dec-14 14:30N 53°32' E 009°58'0 0.0
2017-Dec-14 14:00N 53°32' E 009°58'0 0.0
2017-Dec-14 13:30N 53°32' E 009°58'0 0.0
2017-Dec-14 13:00N 53°32' E 009°58'0 0.0
2017-Dec-14 12:30N 53°32' E 009°58'0 0.0
2017-Dec-14 12:00N 53°32' E 009°58'0 0.0
2017-Dec-14 11:30N 53°32' E 009°58'0 0.0
2017-Dec-14 11:00N 53°32' E 009°58'0 0.0
2017-Dec-14 10:30N 53°32' E 009°58'0 0.0
2017-Dec-14 10:01N 53°32' E 009°59'0 0.0
2017-Dec-14 09:30N 53°32' E 009°58'0 0.0
2017-Dec-14 09:00N 53°32' E 009°58'0 0.0
2017-Dec-14 08:30N 53°32' E 009°58'0 0.0
2017-Dec-14 08:00N 53°32' E 009°58'0 0.0
2017-Dec-14 07:30N 53°32' E 009°58'0 0.0
2017-Dec-14 07:00N 53°32' E 009°58'0 0.0
2017-Dec-14 06:30N 53°32' E 009°58'0 0.0
2017-Dec-14 06:00N 53°32' E 009°58'0 0.0
2017-Dec-14 05:30N 53°32' E 009°58'0 0.0
2017-Dec-14 05:00N 53°32' E 009°58'0 0.0
2017-Dec-14 04:30N 53°32' E 009°58'0 0.0
2017-Dec-14 04:00N 53°32' E 009°58'0 0.0
2017-Dec-14 03:30N 53°32' E 009°58'0 0.0
2017-Dec-14 03:00N 53°32' E 009°58'0 0.0
2017-Dec-14 02:31N 53°32' E 009°58'0 0.0
2017-Dec-14 02:00N 53°32' E 009°58'0 0.0
2017-Dec-14 01:30N 53°32' E 009°58'0 0.0
2017-Dec-14 01:00N 53°32' E 009°59'0 0.0
2017-Dec-14 00:30N 53°32' E 009°58'0 0.0
2017-Dec-14 00:00N 53°32' E 009°58'0 0.0
2017-Dec-13 23:30N 53°32' E 009°58'0 0.0
2017-Dec-13 23:00N 53°32' E 009°58'0 0.0
2017-Dec-13 22:30N 53°32' E 009°58'0 0.0
2017-Dec-13 22:00N 53°32' E 009°58'0 0.0
2017-Dec-13 21:30N 53°32' E 009°58'0 0.0
2017-Dec-13 21:00N 53°32' E 009°58'0 0.0
2017-Dec-13 20:30N 53°32' E 009°58'0 0.0
2017-Dec-13 20:00N 53°32' E 009°58'0 0.0
2017-Dec-13 19:30N 53°32' E 009°58'0 0.0
2017-Dec-13 19:00N 53°32' E 009°59'0 0.0
2017-Dec-13 18:30N 53°32' E 009°58'0 0.0
2017-Dec-13 18:00N 53°32' E 009°58'0 0.0
2017-Dec-13 17:31N 53°32' E 009°59'0 0.0
2017-Dec-13 17:00N 53°32' E 009°58'0 0.0
2017-Dec-13 16:30N 53°32' E 009°58'0 0.0
2017-Dec-13 16:00N 53°32' E 009°58'0 0.0
2017-Dec-13 15:30N 53°32' E 009°58'0 0.0
2017-Dec-13 15:00N 53°32' E 009°58'0 0.0
2017-Dec-13 14:30N 53°32' E 009°58'0 0.0
2017-Dec-13 14:00N 53°32' E 009°59'0 0.0
2017-Dec-13 13:30N 53°32' E 009°58'0 0.0
2017-Dec-13 13:00N 53°32' E 009°58'2 4.0
2017-Dec-13 12:30N 53°33' E 009°55'0 0.0
2017-Dec-13 12:00N 53°33' E 009°55'2 3.0
2017-Dec-13 11:30N 53°33' E 009°58'0 0.4
2017-Dec-13 11:00N 53°32' E 009°58'0 0.6
2017-Dec-13 10:31N 53°33' E 009°58'0 0.3
2017-Dec-13 10:00N 53°33' E 009°58'1 2.9
2017-Dec-13 09:31N 53°33' E 009°55'0 0.0
2017-Dec-13 09:00N 53°33' E 009°55'0 0.0
2017-Dec-13 08:30N 53°33' E 009°55'0 0.0
2017-Dec-13 08:00N 53°33' E 009°55'0 0.0
2017-Dec-13 07:30N 53°33' E 009°55'0 0.0
2017-Dec-13 07:00N 53°33' E 009°55'0 0.0
2017-Dec-13 06:30N 53°33' E 009°55'0 0.0
2017-Dec-13 06:01N 53°33' E 009°55'0 0.0
2017-Dec-13 05:30N 53°33' E 009°55'0 0.0
2017-Dec-13 05:00N 53°33' E 009°55'0 0.0
2017-Dec-13 04:30N 53°33' E 009°55'3 5.8
2017-Dec-13 04:00N 53°30' E 009°58'1 2.3
2017-Dec-13 03:30N 53°29' E 009°59'1 1.2
2017-Dec-13 03:00N 53°30' E 009°59'1 1.5
2017-Dec-13 02:31N 53°30' E 009°58'1 1.4
2017-Dec-13 02:01N 53°31' E 009°57'3 5.1
2017-Dec-13 01:30N 53°32' E 009°54'1 1.9
2017-Dec-13 01:00N 53°33' E 009°55'0 0.0
2017-Dec-13 00:30N 53°33' E 009°55'0 0.0
2017-Dec-13 00:00N 53°33' E 009°55'0 0.0
2017-Dec-12 23:30N 53°33' E 009°55'0 0.0
2017-Dec-12 23:00N 53°33' E 009°55'0 0.0
2017-Dec-12 22:30N 53°33' E 009°55'0 0.0
2017-Dec-12 22:00N 53°33' E 009°55'0 0.0
2017-Dec-12 21:30N 53°33' E 009°55'0 0.0
2017-Dec-12 21:00N 53°33' E 009°55'0 0.0
2017-Dec-12 20:30N 53°33' E 009°55'0 0.0
2017-Dec-12 20:00N 53°33' E 009°55'0 0.0
2017-Dec-12 19:30N 53°33' E 009°55'0 0.0
2017-Dec-12 19:00N 53°33' E 009°55'0 0.0
2017-Dec-12 18:30N 53°33' E 009°55'0 0.0
2017-Dec-12 18:00N 53°33' E 009°55'0 0.0
2017-Dec-12 17:30N 53°33' E 009°55'0 0.0
2017-Dec-12 17:00N 53°33' E 009°55'0 0.0
2017-Dec-12 16:30N 53°33' E 009°55'0 0.0
2017-Dec-12 16:00N 53°33' E 009°55'0 0.0
2017-Dec-12 15:30N 53°33' E 009°55'0 0.0
2017-Dec-12 15:00N 53°33' E 009°55'0 0.0
2017-Dec-12 14:30N 53°33' E 009°55'0 0.0
2017-Dec-12 14:00N 53°33' E 009°55'2 4.0
2017-Dec-12 13:30N 53°32' E 009°59'0 0.3
2017-Dec-12 13:00N 53°32' E 009°59'0 0.0
2017-Dec-12 12:30N 53°32' E 009°58'0 0.0
2017-Dec-12 12:00N 53°32' E 009°58'0 0.0
2017-Dec-12 11:30N 53°32' E 009°59'0 0.9
2017-Dec-12 11:00N 53°33' E 009°58'1 2.9
2017-Dec-12 10:30N 53°32' E 009°56'1 2.9
2017-Dec-12 10:00N 53°31' E 009°57'1 2.0
2017-Dec-12 09:30N 53°32' E 009°56'1 2.1
2017-Dec-12 09:01N 53°32' E 009°54'1 1.1
2017-Dec-12 08:30N 53°33' E 009°55'0 0.0
2017-Dec-12 08:00N 53°33' E 009°55'0 0.0
2017-Dec-12 07:30N 53°33' E 009°55'0 0.0
2017-Dec-12 07:00N 53°33' E 009°55'0 0.0
2017-Dec-12 06:30N 53°33' E 009°55'0 0.0
2017-Dec-12 06:00N 53°33' E 009°55'0 0.0
2017-Dec-12 05:30N 53°33' E 009°55'0 0.0
2017-Dec-12 05:00N 53°33' E 009°55'0 0.0
2017-Dec-12 04:30N 53°33' E 009°55'0 0.0
2017-Dec-12 04:01N 53°33' E 009°55'0 0.0
2017-Dec-12 03:30N 53°33' E 009°55'0 0.0
2017-Dec-12 03:00N 53°33' E 009°55'0 0.0
2017-Dec-12 02:30N 53°33' E 009°55'0 0.0
2017-Dec-12 02:00N 53°33' E 009°55'0 0.0
2017-Dec-12 01:30N 53°33' E 009°55'0 0.0
2017-Dec-12 01:00N 53°33' E 009°55'0 0.0
2017-Dec-12 00:30N 53°33' E 009°55'0 0.0
2017-Dec-12 00:00N 53°33' E 009°55'0 0.3
2017-Dec-11 23:30N 53°33' E 009°56'2 3.3
2017-Dec-11 23:00N 53°31' E 009°56'1 1.1
2017-Dec-11 22:30N 53°31' E 009°56'1 2.6
2017-Dec-11 22:00N 53°33' E 009°55'0 0.0
2017-Dec-11 21:30N 53°33' E 009°55'0 0.0
2017-Dec-11 21:00N 53°33' E 009°55'0 0.0
2017-Dec-11 20:30N 53°33' E 009°55'0 0.0
2017-Dec-11 20:00N 53°33' E 009°55'0 0.0
2017-Dec-11 19:30N 53°33' E 009°55'0 0.0
2017-Dec-11 19:00N 53°33' E 009°55'0 0.0
2017-Dec-11 18:30N 53°33' E 009°55'0 0.0
2017-Dec-11 18:00N 53°33' E 009°55'0 0.0
2017-Dec-11 17:30N 53°33' E 009°55'0 0.0
2017-Dec-11 17:00N 53°33' E 009°55'0 0.0
2017-Dec-11 16:30N 53°33' E 009°55'0 0.0
2017-Dec-11 16:00N 53°33' E 009°55'0 0.0
2017-Dec-11 15:30N 53°33' E 009°55'0 0.0
2017-Dec-11 15:00N 53°33' E 009°55'0 0.0
2017-Dec-11 14:30N 53°33' E 009°55'0 0.0
2017-Dec-11 14:00N 53°33' E 009°55'0 0.0
2017-Dec-11 13:30N 53°33' E 009°55'0 0.0
2017-Dec-11 13:00N 53°33' E 009°55'0 0.0
2017-Dec-11 12:30N 53°33' E 009°55'0 0.0
2017-Dec-11 12:00N 53°33' E 009°55'0 0.0
2017-Dec-11 11:30N 53°33' E 009°55'0 0.0
2017-Dec-11 11:00N 53°33' E 009°55'0 0.0
2017-Dec-11 10:30N 53°33' E 009°55'0 0.0
2017-Dec-11 10:00N 53°33' E 009°55'0 0.0
2017-Dec-11 09:30N 53°33' E 009°55'0 0.0
2017-Dec-11 09:00N 53°33' E 009°55'0 0.0
2017-Dec-11 08:30N 53°33' E 009°55'0 0.0
2017-Dec-11 08:00N 53°33' E 009°55'0 0.0
2017-Dec-11 07:30N 53°33' E 009°55'0 0.0
2017-Dec-11 07:00N 53°33' E 009°55'0 0.0
2017-Dec-11 06:30N 53°33' E 009°55'0 0.0
2017-Dec-11 06:00N 53°33' E 009°55'0 0.0
2017-Dec-11 05:30N 53°33' E 009°55'1 1.4
2017-Dec-11 05:00N 53°32' E 009°54'0 0.9
2017-Dec-11 04:31N 53°32' E 009°55'2 4.1
2017-Dec-11 04:00N 53°33' E 009°52'2 4.3
2017-Dec-11 03:30N 53°33' E 009°55'0 0.0
2017-Dec-11 03:00N 53°33' E 009°55'0 0.0
2017-Dec-11 02:30N 53°33' E 009°55'0 0.0
2017-Dec-11 02:00N 53°33' E 009°55'0 0.0
2017-Dec-11 01:30N 53°33' E 009°55'0 0.0
2017-Dec-11 01:00N 53°33' E 009°55'0 0.0
2017-Dec-11 00:30N 53°33' E 009°55'0 0.0
2017-Dec-11 00:00N 53°33' E 009°55'0 0.0
2017-Dec-10 23:30N 53°33' E 009°55'0 0.0
2017-Dec-10 23:00N 53°33' E 009°55'0 0.0
2017-Dec-10 22:31N 53°33' E 009°55'0 0.0
2017-Dec-10 22:00N 53°33' E 009°55'0 0.0
2017-Dec-10 21:30N 53°33' E 009°55'0 0.0
2017-Dec-10 21:00N 53°33' E 009°55'0 0.0
2017-Dec-10 20:30N 53°33' E 009°55'0 0.0
2017-Dec-10 20:00N 53°33' E 009°55'0 0.0
2017-Dec-10 19:30N 53°33' E 009°55'0 0.0
2017-Dec-10 19:00N 53°33' E 009°55'0 0.0
2017-Dec-10 18:30N 53°33' E 009°55'0 0.0
2017-Dec-10 18:00N 53°33' E 009°55'0 0.0
2017-Dec-10 17:30N 53°33' E 009°55'0 0.0
2017-Dec-10 17:00N 53°33' E 009°55'0 0.0
2017-Dec-10 16:30N 53°33' E 009°55'0 0.0
2017-Dec-10 16:00N 53°33' E 009°55'0 0.0
2017-Dec-10 15:30N 53°33' E 009°55'0 0.0
2017-Dec-10 15:00N 53°33' E 009°55'0 0.0
2017-Dec-10 14:30N 53°33' E 009°55'0 0.0
2017-Dec-10 14:00N 53°33' E 009°55'0 0.0
2017-Dec-10 13:30N 53°33' E 009°55'0 0.0
2017-Dec-10 13:00N 53°33' E 009°55'0 0.0
2017-Dec-10 12:30N 53°33' E 009°55'0 0.0
2017-Dec-10 12:00N 53°33' E 009°55'1 2.1
2017-Dec-10 11:30N 53°32' E 009°54'4 7.6
2017-Dec-10 11:00N 53°33' E 009°47'3 6.6
2017-Dec-10 10:30N 53°33' E 009°53'2 3.2
2017-Dec-10 10:00N 53°32' E 009°55'1 1.6
2017-Dec-10 09:30N 53°33' E 009°55'0 0.0
2017-Dec-10 09:00N 53°33' E 009°55'0 0.0
2017-Dec-10 08:30N 53°33' E 009°55'0 0.0
2017-Dec-10 08:00N 53°33' E 009°55'0 0.0
2017-Dec-10 07:31N 53°33' E 009°55'0 0.0
2017-Dec-10 07:00N 53°33' E 009°55'0 0.3
2017-Dec-10 06:30N 53°33' E 009°56'1 1.9
2017-Dec-10 06:00N 53°33' E 009°57'0 0.9
2017-Dec-10 05:30N 53°32' E 009°56'1 1.8
2017-Dec-10 05:00N 53°33' E 009°55'0 0.5
2017-Dec-10 04:30N 53°33' E 009°55'0 0.0
2017-Dec-10 04:01N 53°33' E 009°55'0 0.0
2017-Dec-10 03:30N 53°33' E 009°55'0 0.0
2017-Dec-10 03:00N 53°33' E 009°55'0 0.0
2017-Dec-10 02:31N 53°33' E 009°55'1 1.4
2017-Dec-10 02:01N 53°32' E 009°54'1 1.1
2017-Dec-10 01:31N 53°32' E 009°55'1 1.6
2017-Dec-10 01:00N 53°33' E 009°55'0 0.0
2017-Dec-10 00:30N 53°33' E 009°55'0 0.0
2017-Dec-10 00:00N 53°33' E 009°55'0 0.0
2017-Dec-09 23:30N 53°33' E 009°55'0 0.0
2017-Dec-09 23:00N 53°33' E 009°55'0 0.0
2017-Dec-09 22:30N 53°33' E 009°55'0 0.0
2017-Dec-09 22:00N 53°33' E 009°55'0 0.0
2017-Dec-09 21:30N 53°33' E 009°55'0 0.0
2017-Dec-09 21:00N 53°33' E 009°55'0 0.0
2017-Dec-09 20:30N 53°33' E 009°55'0 0.0
2017-Dec-09 20:00N 53°33' E 009°55'0 0.0
2017-Dec-09 19:30N 53°33' E 009°55'0 0.0
2017-Dec-09 19:00N 53°33' E 009°55'0 0.0
2017-Dec-09 18:31N 53°33' E 009°55'0 0.0
2017-Dec-09 18:00N 53°33' E 009°55'0 0.0
2017-Dec-09 17:30N 53°33' E 009°55'0 0.0
2017-Dec-09 17:00N 53°33' E 009°55'0 0.0
2017-Dec-09 16:31N 53°33' E 009°55'0 0.0
2017-Dec-09 16:00N 53°33' E 009°55'0 0.0
2017-Dec-09 15:30N 53°33' E 009°55'0 0.0
2017-Dec-09 15:00N 53°33' E 009°55'0 0.0
2017-Dec-09 14:30N 53°33' E 009°55'0 0.0
2017-Dec-09 14:00N 53°33' E 009°55'0 0.0
2017-Dec-09 13:31N 53°33' E 009°55'0 0.0
2017-Dec-09 13:00N 53°33' E 009°55'0 0.0
2017-Dec-09 12:30N 53°33' E 009°55'0 0.0
2017-Dec-09 12:00N 53°33' E 009°55'0 0.0
2017-Dec-09 11:31N 53°33' E 009°55'0 0.0
2017-Dec-09 11:00N 53°33' E 009°55'0 0.0
2017-Dec-09 10:30N 53°33' E 009°55'0 0.0
2017-Dec-09 10:00N 53°33' E 009°55'0 0.0
2017-Dec-09 09:30N 53°33' E 009°55'3 5.4
2017-Dec-09 09:01N 53°30' E 009°58'0 0.1
2017-Dec-09 08:31N 53°30' E 009°58'1 1.6
2017-Dec-09 08:01N 53°31' E 009°57'3 5.9
2017-Dec-09 07:31N 53°33' E 009°53'1 2.3
2017-Dec-09 07:00N 53°33' E 009°51'3 6.5
2017-Dec-09 06:31N 53°33' E 009°56'2 4.4
2017-Dec-09 06:00N 53°33' E 009°53'2 3.3
2017-Dec-09 05:30N 53°33' E 009°55'0 0.0
2017-Dec-09 05:00N 53°33' E 009°55'0 0.0
2017-Dec-09 04:30N 53°33' E 009°55'2 3.5
2017-Dec-09 04:00N 53°31' E 009°56'0 0.5
2017-Dec-09 03:30N 53°31' E 009°56'2 3.1
2017-Dec-09 03:01N 53°33' E 009°55'0 0.0
2017-Dec-09 02:30N 53°33' E 009°55'0 0.0
2017-Dec-09 02:00N 53°33' E 009°55'0 0.0
2017-Dec-09 01:30N 53°33' E 009°55'0 0.0
2017-Dec-09 01:00N 53°33' E 009°55'0 0.0
2017-Dec-09 00:30N 53°33' E 009°55'0 0.0
2017-Dec-09 00:00N 53°33' E 009°55'0 0.0
2017-Dec-08 23:30N 53°33' E 009°55'0 0.0
2017-Dec-08 23:00N 53°33' E 009°55'0 0.0
2017-Dec-08 22:30N 53°33' E 009°55'0 0.0
2017-Dec-08 22:00N 53°33' E 009°55'0 0.0
2017-Dec-08 21:30N 53°33' E 009°55'0 0.0
2017-Dec-08 21:00N 53°33' E 009°55'0 0.0
2017-Dec-08 20:30N 53°33' E 009°55'0 0.0
2017-Dec-08 20:00N 53°33' E 009°55'0 0.0
2017-Dec-08 19:31N 53°33' E 009°55'0 0.0
2017-Dec-08 19:00N 53°33' E 009°55'0 0.0
2017-Dec-08 18:30N 53°33' E 009°55'0 0.0
2017-Dec-08 18:00N 53°33' E 009°55'0 0.0
2017-Dec-08 17:30N 53°33' E 009°55'0 0.0
2017-Dec-08 17:00N 53°33' E 009°55'0 0.0
2017-Dec-08 16:31N 53°33' E 009°55'0 0.0
2017-Dec-08 16:00N 53°33' E 009°55'0 0.0
2017-Dec-08 15:30N 53°33' E 009°55'0 0.0
2017-Dec-08 15:00N 53°33' E 009°55'0 0.0
2017-Dec-08 14:30N 53°33' E 009°55'0 0.0
2017-Dec-08 14:00N 53°33' E 009°55'1 1.4
2017-Dec-08 13:30N 53°32' E 009°54'0 0.4
2017-Dec-08 13:00N 53°32' E 009°54'1 1.7
2017-Dec-08 12:30N 53°33' E 009°55'0 0.0
2017-Dec-08 12:01N 53°33' E 009°55'0 0.0
2017-Dec-08 11:30N 53°33' E 009°55'0 0.0
2017-Dec-08 11:00N 53°33' E 009°55'1 1.9
2017-Dec-08 10:31N 53°33' E 009°54'1 2.8
2017-Dec-08 10:00N 53°32' E 009°56'1 1.9
2017-Dec-08 09:30N 53°33' E 009°55'0 0.0
2017-Dec-08 09:01N 53°33' E 009°55'1 1.2
2017-Dec-08 08:30N 53°32' E 009°54'0 0.7
2017-Dec-08 08:00N 53°32' E 009°55'1 1.2
2017-Dec-08 07:30N 53°32' E 009°55'0 0.5
2017-Dec-08 07:00N 53°32' E 009°55'0 0.7
2017-Dec-08 06:31N 53°32' E 009°55'2 3.6
2017-Dec-08 06:00N 53°33' E 009°52'1 2.7
2017-Dec-08 05:30N 53°33' E 009°54'1 1.5
2017-Dec-08 05:00N 53°33' E 009°55'0 0.0
2017-Dec-08 04:30N 53°33' E 009°55'0 0.0
2017-Dec-08 04:00N 53°33' E 009°55'0 0.0
2017-Dec-08 03:31N 53°33' E 009°55'0 0.0
2017-Dec-08 03:01N 53°33' E 009°55'0 0.0
2017-Dec-08 02:30N 53°33' E 009°55'0 0.0
2017-Dec-08 02:00N 53°33' E 009°55'0 0.0
2017-Dec-08 01:30N 53°33' E 009°55'0 0.0
2017-Dec-08 01:00N 53°33' E 009°55'0 0.0
2017-Dec-08 00:31N 53°33' E 009°55'0 0.0
2017-Dec-08 00:00N 53°33' E 009°55'0 0.0
2017-Dec-07 23:30N 53°33' E 009°55'0 0.0
2017-Dec-07 23:00N 53°33' E 009°55'0 0.0
2017-Dec-07 22:31N 53°33' E 009°55'0 0.0
2017-Dec-07 22:01N 53°33' E 009°55'0 0.0
2017-Dec-07 21:31N 53°33' E 009°55'0 0.0
2017-Dec-07 21:00N 53°33' E 009°55'0 0.0
2017-Dec-07 20:30N 53°33' E 009°55'0 0.0
2017-Dec-07 20:01N 53°33' E 009°55'2 3.6
2017-Dec-07 19:30N 53°31' E 009°57'1 1.9
2017-Dec-07 19:01N 53°30' E 009°58'0 0.0
2017-Dec-07 18:31N 53°30' E 009°58'0 0.8
2017-Dec-07 18:01N 53°30' E 009°57'0 0.1
2017-Dec-07 17:31N 53°30' E 009°57'2 3.6
2017-Dec-07 17:01N 53°32' E 009°56'1 1.8
2017-Dec-07 16:31N 53°33' E 009°55'0 0.0
2017-Dec-07 16:01N 53°33' E 009°55'0 0.0
2017-Dec-07 15:30N 53°33' E 009°55'0 0.0
2017-Dec-07 15:01N 53°33' E 009°55'0 0.0
2017-Dec-07 14:30N 53°33' E 009°55'0 0.0
2017-Dec-07 14:00N 53°33' E 009°55'0 0.0
2017-Dec-07 13:30N 53°33' E 009°55'0 0.0
2017-Dec-07 13:00N 53°33' E 009°55'0 0.0
2017-Dec-07 12:31N 53°33' E 009°55'0 0.0
2017-Dec-07 12:00N 53°33' E 009°55'0 0.0
2017-Dec-07 11:30N 53°33' E 009°55'0 0.0
2017-Dec-07 11:00N 53°33' E 009°55'0 0.0
2017-Dec-07 10:30N 53°33' E 009°55'0 0.0
2017-Dec-07 10:00N 53°33' E 009°55'  
Track history (hours):
 
Tides and Currents Weather Stations Pressure Air Temp Water Temp Dewpoint Dewpoint Depression Visibility Wind Speed Wind Dir Waves Ship Positions

Maersk Douglas

Last reported at 2017-Dec-17 10:00 UTC. Time now 2017-Dec-17 10:17 UTC.
Position N 53°33' E 009°58'.

Length 294.1 m; beam 32.2 m; draft 13.7 m.

Type: Tug. MMSI: 211710650.

Date/timePositionNaut miles runAvg speedWind from/ knotsBaromVisibWave heightAir tempDewpointWater temp
2017-Dec-17 10:00N 53°33' E 009°58'0 0.0
2017-Dec-17 09:30N 53°33' E 009°58'0 0.0
2017-Dec-17 09:00N 53°33' E 009°58'0 0.0
2017-Dec-17 08:30N 53°33' E 009°58'0 0.0
2017-Dec-17 08:00N 53°33' E 009°58'0 0.0
2017-Dec-17 07:30N 53°33' E 009°58'0 0.0
2017-Dec-17 07:00N 53°33' E 009°58'0 0.0
2017-Dec-17 06:30N 53°33' E 009°58'0 0.0
2017-Dec-17 06:01N 53°33' E 009°58'0 0.0
2017-Dec-17 05:30N 53°33' E 009°58'0 0.0
2017-Dec-17 05:00N 53°33' E 009°58'0 0.0
2017-Dec-17 04:30N 53°33' E 009°58'0 0.0
2017-Dec-17 04:00N 53°33' E 009°58'0 0.0
2017-Dec-17 03:30N 53°33' E 009°58'0 0.0
2017-Dec-17 03:00N 53°33' E 009°58'0 0.0
2017-Dec-17 02:30N 53°33' E 009°58'0 0.0
2017-Dec-17 02:00N 53°33' E 009°58'0 0.0
2017-Dec-17 01:30N 53°33' E 009°58'0 0.0
2017-Dec-17 01:00N 53°33' E 009°58'0 0.0
2017-Dec-17 00:30N 53°33' E 009°58'0 0.0
2017-Dec-17 00:00N 53°33' E 009°58'0 0.0
2017-Dec-16 23:30N 53°33' E 009°58'0 0.0
2017-Dec-16 23:01N 53°33' E 009°58'0 0.0
2017-Dec-16 22:30N 53°33' E 009°58'0 0.0
2017-Dec-16 22:00N 53°33' E 009°58'0 0.0
2017-Dec-16 21:31N 53°33' E 009°58'0 0.0
2017-Dec-16 21:01N 53°33' E 009°58'0 0.0
2017-Dec-16 20:30N 53°33' E 009°58'0 0.0
2017-Dec-16 20:00N 53°33' E 009°58'3 6.4
2017-Dec-16 19:31N 53°30' E 009°57'0 0.4
2017-Dec-16 19:00N 53°30' E 009°57'3 6.7
2017-Dec-16 18:30N 53°32' E 009°54'1 1.7
2017-Dec-16 18:01N 53°33' E 009°55'0 0.2
2017-Dec-16 17:31N 53°33' E 009°55'0 0.0
2017-Dec-16 17:00N 53°33' E 009°55'0 0.0
2017-Dec-16 16:30N 53°33' E 009°55'0 0.0
2017-Dec-16 16:00N 53°33' E 009°55'0 0.0
2017-Dec-16 15:30N 53°33' E 009°55'0 0.0
2017-Dec-16 15:00N 53°33' E 009°55'0 0.0
2017-Dec-16 14:30N 53°33' E 009°55'2 3.7
2017-Dec-16 14:00N 53°31' E 009°56'1 2.1
2017-Dec-16 13:31N 53°30' E 009°57'3 5.3
2017-Dec-16 13:01N 53°33' E 009°57'0 0.8
2017-Dec-16 12:30N 53°32' E 009°56'0 0.7
2017-Dec-16 12:00N 53°33' E 009°55'0 0.6
2017-Dec-16 11:30N 53°33' E 009°56'1 2.1
2017-Dec-16 11:00N 53°32' E 009°57'1 2.9
2017-Dec-16 10:31N 53°33' E 009°55'0 0.2
2017-Dec-16 10:00N 53°33' E 009°55'0 0.0
2017-Dec-16 09:30N 53°33' E 009°55'0 0.0
2017-Dec-16 09:00N 53°33' E 009°55'0 0.0
2017-Dec-16 08:30N 53°33' E 009°55'0 0.0
2017-Dec-16 08:00N 53°33' E 009°55'0 0.0
2017-Dec-16 07:30N 53°33' E 009°55'2 3.8
2017-Dec-16 07:00N 53°31' E 009°57'2 4.1
2017-Dec-16 06:30N 53°29' E 009°59'1 2.0
2017-Dec-16 06:00N 53°30' E 009°58'1 2.4
2017-Dec-16 05:31N 53°31' E 009°57'2 3.8
2017-Dec-16 05:00N 53°32' E 009°54'1 1.3
2017-Dec-16 04:30N 53°33' E 009°55'0 0.0
2017-Dec-16 04:00N 53°33' E 009°55'0 0.0
2017-Dec-16 03:30N 53°33' E 009°55'0 0.0
2017-Dec-16 03:00N 53°33' E 009°55'0 0.0
2017-Dec-16 02:31N 53°33' E 009°55'0 0.0
2017-Dec-16 02:00N 53°33' E 009°55'0 0.0
2017-Dec-16 01:30N 53°33' E 009°55'1 2.4
2017-Dec-16 01:00N 53°32' E 009°56'2 3.2
2017-Dec-16 00:30N 53°30' E 009°57'0 0.0
2017-Dec-16 00:00N 53°30' E 009°57'3 5.3
2017-Dec-15 23:30N 53°33' E 009°58'0 0.0
2017-Dec-15 23:00N 53°33' E 009°58'0 0.0
2017-Dec-15 22:30N 53°33' E 009°58'0 0.0
2017-Dec-15 22:00N 53°33' E 009°58'0 0.0
2017-Dec-15 21:30N 53°33' E 009°58'0 0.0
2017-Dec-15 21:00N 53°33' E 009°58'0 0.0
2017-Dec-15 20:30N 53°33' E 009°58'0 0.0
2017-Dec-15 20:00N 53°33' E 009°58'0 0.0
2017-Dec-15 19:30N 53°33' E 009°58'0 0.0
2017-Dec-15 19:00N 53°33' E 009°58'0 0.0
2017-Dec-15 18:30N 53°33' E 009°58'0 0.0
2017-Dec-15 18:00N 53°33' E 009°58'0 0.0
2017-Dec-15 17:30N 53°33' E 009°58'0 0.0
2017-Dec-15 17:00N 53°33' E 009°58'0 0.0
2017-Dec-15 16:30N 53°33' E 009°58'0 0.0
2017-Dec-15 16:00N 53°33' E 009°58'0 0.0
2017-Dec-15 15:30N 53°33' E 009°58'0 0.0
2017-Dec-15 15:00N 53°33' E 009°58'0 0.0
2017-Dec-15 14:30N 53°33' E 009°58'0 0.0
2017-Dec-15 14:00N 53°33' E 009°58'0 0.0
2017-Dec-15 13:30N 53°33' E 009°58'0 0.0
2017-Dec-15 13:00N 53°33' E 009°58'0 0.0
2017-Dec-15 12:30N 53°33' E 009°58'0 0.0
2017-Dec-15 12:00N 53°33' E 009°58'1 1.5
2017-Dec-15 11:30N 53°32' E 009°58'0 0.0
2017-Dec-15 11:00N 53°32' E 009°58'0 0.0
2017-Dec-15 10:30N 53°32' E 009°58'0 0.0
2017-Dec-15 10:00N 53°32' E 009°58'0 0.0
2017-Dec-15 09:30N 53°32' E 009°58'0 0.0
2017-Dec-15 09:00N 53°32' E 009°58'0 0.0
2017-Dec-15 08:30N 53°32' E 009°58'0 0.0
2017-Dec-15 08:00N 53°32' E 009°58'0 0.0
2017-Dec-15 07:30N 53°32' E 009°58'0 0.0
2017-Dec-15 07:00N 53°32' E 009°58'0 0.0
2017-Dec-15 06:30N 53°32' E 009°58'0 0.0
2017-Dec-15 06:00N 53°32' E 009°58'0 0.0
2017-Dec-15 05:30N 53°32' E 009°58'0 0.0
2017-Dec-15 05:00N 53°32' E 009°58'0 0.0
2017-Dec-15 04:30N 53°32' E 009°58'0 0.0
2017-Dec-15 04:00N 53°32' E 009°58'0 0.0
2017-Dec-15 02:31N 53°32' E 009°58'0 0.0
2017-Dec-15 01:00N 53°32' E 009°58'0 0.0
2017-Dec-15 00:30N 53°32' E 009°58'0 0.0
2017-Dec-14 18:31N 53°32' E 009°58'0 0.0
2017-Dec-14 18:00N 53°32' E 009°58'0 0.0
2017-Dec-14 17:30N 53°32' E 009°58'0 0.0
2017-Dec-14 17:00N 53°32' E 009°58'0 0.0
2017-Dec-14 16:30N 53°32' E 009°58'0 0.0
2017-Dec-14 16:00N 53°32' E 009°58'0 0.0
2017-Dec-14 15:00N 53°32' E 009°58'0 0.0
2017-Dec-14 14:30N 53°32' E 009°58'0 0.0
2017-Dec-14 14:00N 53°32' E 009°58'0 0.0
2017-Dec-14 13:30N 53°32' E 009°58'0 0.0
2017-Dec-14 13:00N 53°32' E 009°58'0 0.0
2017-Dec-14 12:30N 53°32' E 009°58'0 0.0
2017-Dec-14 12:00N 53°32' E 009°58'0 0.0
2017-Dec-14 11:30N 53°32' E 009°58'0 0.0
2017-Dec-14 11:00N 53°32' E 009°58'0 0.0
2017-Dec-14 10:30N 53°32' E 009°58'0 0.0
2017-Dec-14 10:01N 53°32' E 009°59'0 0.0
2017-Dec-14 09:30N 53°32' E 009°58'0 0.0
2017-Dec-14 09:00N 53°32' E 009°58'0 0.0
2017-Dec-14 08:30N 53°32' E 009°58'0 0.0
2017-Dec-14 08:00N 53°32' E 009°58'0 0.0
2017-Dec-14 07:30N 53°32' E 009°58'0 0.0
2017-Dec-14 07:00N 53°32' E 009°58'0 0.0
2017-Dec-14 06:30N 53°32' E 009°58'0 0.0
2017-Dec-14 06:00N 53°32' E 009°58'0 0.0
2017-Dec-14 05:30N 53°32' E 009°58'0 0.0
2017-Dec-14 05:00N 53°32' E 009°58'0 0.0
2017-Dec-14 04:30N 53°32' E 009°58'0 0.0
2017-Dec-14 04:00N 53°32' E 009°58'0 0.0
2017-Dec-14 03:30N 53°32' E 009°58'0 0.0
2017-Dec-14 03:00N 53°32' E 009°58'0 0.0
2017-Dec-14 02:31N 53°32' E 009°58'0 0.0
2017-Dec-14 02:00N 53°32' E 009°58'0 0.0
2017-Dec-14 01:30N 53°32' E 009°58'0 0.0
2017-Dec-14 01:00N 53°32' E 009°59'0 0.0
2017-Dec-14 00:30N 53°32' E 009°58'0 0.0
2017-Dec-14 00:00N 53°32' E 009°58'0 0.0
2017-Dec-13 23:30N 53°32' E 009°58'0 0.0
2017-Dec-13 23:00N 53°32' E 009°58'0 0.0
2017-Dec-13 22:30N 53°32' E 009°58'0 0.0
2017-Dec-13 22:00N 53°32' E 009°58'0 0.0
2017-Dec-13 21:30N 53°32' E 009°58'0 0.0
2017-Dec-13 21:00N 53°32' E 009°58'0 0.0
2017-Dec-13 20:30N 53°32' E 009°58'0 0.0
2017-Dec-13 20:00N 53°32' E 009°58'0 0.0
2017-Dec-13 19:30N 53°32' E 009°58'0 0.0
2017-Dec-13 19:00N 53°32' E 009°59'0 0.0
2017-Dec-13 18:30N 53°32' E 009°58'0 0.0
2017-Dec-13 18:00N 53°32' E 009°58'0 0.0
2017-Dec-13 17:31N 53°32' E 009°59'0 0.0
2017-Dec-13 17:00N 53°32' E 009°58'0 0.0
2017-Dec-13 16:30N 53°32' E 009°58'0 0.0
2017-Dec-13 16:00N 53°32' E 009°58'0 0.0
2017-Dec-13 15:30N 53°32' E 009°58'0 0.0
2017-Dec-13 15:00N 53°32' E 009°58'0 0.0
2017-Dec-13 14:30N 53°32' E 009°58'0 0.0
2017-Dec-13 14:00N 53°32' E 009°59'0 0.0
2017-Dec-13 13:30N 53°32' E 009°58'0 0.0
2017-Dec-13 13:00N 53°32' E 009°58'2 4.0
2017-Dec-13 12:30N 53°33' E 009°55'0 0.0
2017-Dec-13 12:00N 53°33' E 009°55'2 3.0
2017-Dec-13 11:30N 53°33' E 009°58'0 0.4
2017-Dec-13 11:00N 53°32' E 009°58'0 0.6
2017-Dec-13 10:31N 53°33' E 009°58'0 0.3
2017-Dec-13 10:00N 53°33' E 009°58'1 2.9
2017-Dec-13 09:31N 53°33' E 009°55'0 0.0
2017-Dec-13 09:00N 53°33' E 009°55'0 0.0
2017-Dec-13 08:30N 53°33' E 009°55'0 0.0
2017-Dec-13 08:00N 53°33' E 009°55'0 0.0
2017-Dec-13 07:30N 53°33' E 009°55'0 0.0
2017-Dec-13 07:00N 53°33' E 009°55'0 0.0
2017-Dec-13 06:30N 53°33' E 009°55'0 0.0
2017-Dec-13 06:01N 53°33' E 009°55'0 0.0
2017-Dec-13 05:30N 53°33' E 009°55'0 0.0
2017-Dec-13 05:00N 53°33' E 009°55'0 0.0
2017-Dec-13 04:30N 53°33' E 009°55'3 5.8
2017-Dec-13 04:00N 53°30' E 009°58'1 2.3
2017-Dec-13 03:30N 53°29' E 009°59'1 1.2
2017-Dec-13 03:00N 53°30' E 009°59'1 1.5
2017-Dec-13 02:31N 53°30' E 009°58'1 1.4
2017-Dec-13 02:01N 53°31' E 009°57'3 5.1
2017-Dec-13 01:30N 53°32' E 009°54'1 1.9
2017-Dec-13 01:00N 53°33' E 009°55'0 0.0
2017-Dec-13 00:30N 53°33' E 009°55'0 0.0
2017-Dec-13 00:00N 53°33' E 009°55'0 0.0
2017-Dec-12 23:30N 53°33' E 009°55'0 0.0
2017-Dec-12 23:00N 53°33' E 009°55'0 0.0
2017-Dec-12 22:30N 53°33' E 009°55'0 0.0
2017-Dec-12 22:00N 53°33' E 009°55'0 0.0
2017-Dec-12 21:30N 53°33' E 009°55'0 0.0
2017-Dec-12 21:00N 53°33' E 009°55'0 0.0
2017-Dec-12 20:30N 53°33' E 009°55'0 0.0
2017-Dec-12 20:00N 53°33' E 009°55'0 0.0
2017-Dec-12 19:30N 53°33' E 009°55'0 0.0
2017-Dec-12 19:00N 53°33' E 009°55'0 0.0
2017-Dec-12 18:30N 53°33' E 009°55'0 0.0
2017-Dec-12 18:00N 53°33' E 009°55'0 0.0
2017-Dec-12 17:30N 53°33' E 009°55'0 0.0
2017-Dec-12 17:00N 53°33' E 009°55'0 0.0
2017-Dec-12 16:30N 53°33' E 009°55'0 0.0
2017-Dec-12 16:00N 53°33' E 009°55'0 0.0
2017-Dec-12 15:30N 53°33' E 009°55'0 0.0
2017-Dec-12 15:00N 53°33' E 009°55'0 0.0
2017-Dec-12 14:30N 53°33' E 009°55'0 0.0
2017-Dec-12 14:00N 53°33' E 009°55'2 4.0
2017-Dec-12 13:30N 53°32' E 009°59'0 0.3
2017-Dec-12 13:00N 53°32' E 009°59'0 0.0
2017-Dec-12 12:30N 53°32' E 009°58'0 0.0
2017-Dec-12 12:00N 53°32' E 009°58'0 0.0
2017-Dec-12 11:30N 53°32' E 009°59'0 0.9
2017-Dec-12 11:00N 53°33' E 009°58'1 2.9
2017-Dec-12 10:30N 53°32' E 009°56'1 2.9
2017-Dec-12 10:00N 53°31' E 009°57'1 2.0
2017-Dec-12 09:30N 53°32' E 009°56'1 2.1
2017-Dec-12 09:01N 53°32' E 009°54'1 1.1
2017-Dec-12 08:30N 53°33' E 009°55'0 0.0
2017-Dec-12 08:00N 53°33' E 009°55'0 0.0
2017-Dec-12 07:30N 53°33' E 009°55'0 0.0
2017-Dec-12 07:00N 53°33' E 009°55'0 0.0
2017-Dec-12 06:30N 53°33' E 009°55'0 0.0
2017-Dec-12 06:00N 53°33' E 009°55'0 0.0
2017-Dec-12 05:30N 53°33' E 009°55'0 0.0
2017-Dec-12 05:00N 53°33' E 009°55'0 0.0
2017-Dec-12 04:30N 53°33' E 009°55'0 0.0
2017-Dec-12 04:01N 53°33' E 009°55'0 0.0
2017-Dec-12 03:30N 53°33' E 009°55'0 0.0
2017-Dec-12 03:00N 53°33' E 009°55'0 0.0
2017-Dec-12 02:30N 53°33' E 009°55'0 0.0
2017-Dec-12 02:00N 53°33' E 009°55'0 0.0
2017-Dec-12 01:30N 53°33' E 009°55'0 0.0
2017-Dec-12 01:00N 53°33' E 009°55'0 0.0
2017-Dec-12 00:30N 53°33' E 009°55'0 0.0
2017-Dec-12 00:00N 53°33' E 009°55'0 0.3
2017-Dec-11 23:30N 53°33' E 009°56'2 3.3
2017-Dec-11 23:00N 53°31' E 009°56'1 1.1
2017-Dec-11 22:30N 53°31' E 009°56'1 2.6
2017-Dec-11 22:00N 53°33' E 009°55'0 0.0
2017-Dec-11 21:30N 53°33' E 009°55'0 0.0
2017-Dec-11 21:00N 53°33' E 009°55'0 0.0
2017-Dec-11 20:30N 53°33' E 009°55'0 0.0
2017-Dec-11 20:00N 53°33' E 009°55'0 0.0
2017-Dec-11 19:30N 53°33' E 009°55'0 0.0
2017-Dec-11 19:00N 53°33' E 009°55'0 0.0
2017-Dec-11 18:30N 53°33' E 009°55'0 0.0
2017-Dec-11 18:00N 53°33' E 009°55'0 0.0
2017-Dec-11 17:30N 53°33' E 009°55'0 0.0
2017-Dec-11 17:00N 53°33' E 009°55'0 0.0
2017-Dec-11 16:30N 53°33' E 009°55'0 0.0
2017-Dec-11 16:00N 53°33' E 009°55'0 0.0
2017-Dec-11 15:30N 53°33' E 009°55'0 0.0
2017-Dec-11 15:00N 53°33' E 009°55'0 0.0
2017-Dec-11 14:30N 53°33' E 009°55'0 0.0
2017-Dec-11 14:00N 53°33' E 009°55'0 0.0
2017-Dec-11 13:30N 53°33' E 009°55'0 0.0
2017-Dec-11 13:00N 53°33' E 009°55'0 0.0
2017-Dec-11 12:30N 53°33' E 009°55'0 0.0
2017-Dec-11 12:00N 53°33' E 009°55'0 0.0
2017-Dec-11 11:30N 53°33' E 009°55'0 0.0
2017-Dec-11 11:00N 53°33' E 009°55'0 0.0
2017-Dec-11 10:30N 53°33' E 009°55'0 0.0
2017-Dec-11 10:00N 53°33' E 009°55'0 0.0
2017-Dec-11 09:30N 53°33' E 009°55'0 0.0
2017-Dec-11 09:00N 53°33' E 009°55'0 0.0
2017-Dec-11 08:30N 53°33' E 009°55'0 0.0
2017-Dec-11 08:00N 53°33' E 009°55'0 0.0
2017-Dec-11 07:30N 53°33' E 009°55'0 0.0
2017-Dec-11 07:00N 53°33' E 009°55'0 0.0
2017-Dec-11 06:30N 53°33' E 009°55'0 0.0
2017-Dec-11 06:00N 53°33' E 009°55'0 0.0
2017-Dec-11 05:30N 53°33' E 009°55'1 1.4
2017-Dec-11 05:00N 53°32' E 009°54'0 0.9
2017-Dec-11 04:31N 53°32' E 009°55'2 4.1
2017-Dec-11 04:00N 53°33' E 009°52'2 4.3
2017-Dec-11 03:30N 53°33' E 009°55'0 0.0
2017-Dec-11 03:00N 53°33' E 009°55'0 0.0
2017-Dec-11 02:30N 53°33' E 009°55'0 0.0
2017-Dec-11 02:00N 53°33' E 009°55'0 0.0
2017-Dec-11 01:30N 53°33' E 009°55'0 0.0
2017-Dec-11 01:00N 53°33' E 009°55'0 0.0
2017-Dec-11 00:30N 53°33' E 009°55'0 0.0
2017-Dec-11 00:00N 53°33' E 009°55'0 0.0
2017-Dec-10 23:30N 53°33' E 009°55'0 0.0
2017-Dec-10 23:00N 53°33' E 009°55'0 0.0
2017-Dec-10 22:31N 53°33' E 009°55'0 0.0
2017-Dec-10 22:00N 53°33' E 009°55'0 0.0
2017-Dec-10 21:30N 53°33' E 009°55'0 0.0
2017-Dec-10 21:00N 53°33' E 009°55'0 0.0
2017-Dec-10 20:30N 53°33' E 009°55'0 0.0
2017-Dec-10 20:00N 53°33' E 009°55'0 0.0
2017-Dec-10 19:30N 53°33' E 009°55'0 0.0
2017-Dec-10 19:00N 53°33' E 009°55'0 0.0
2017-Dec-10 18:30N 53°33' E 009°55'0 0.0
2017-Dec-10 18:00N 53°33' E 009°55'0 0.0
2017-Dec-10 17:30N 53°33' E 009°55'0 0.0
2017-Dec-10 17:00N 53°33' E 009°55'0 0.0
2017-Dec-10 16:30N 53°33' E 009°55'0 0.0
2017-Dec-10 16:00N 53°33' E 009°55'0 0.0
2017-Dec-10 15:30N 53°33' E 009°55'0 0.0
2017-Dec-10 15:00N 53°33' E 009°55'0 0.0
2017-Dec-10 14:30N 53°33' E 009°55'0 0.0
2017-Dec-10 14:00N 53°33' E 009°55'0 0.0
2017-Dec-10 13:30N 53°33' E 009°55'0 0.0
2017-Dec-10 13:00N 53°33' E 009°55'0 0.0
2017-Dec-10 12:30N 53°33' E 009°55'0 0.0
2017-Dec-10 12:00N 53°33' E 009°55'1 2.1
2017-Dec-10 11:30N 53°32' E 009°54'4 7.6
2017-Dec-10 11:00N 53°33' E 009°47'3 6.6
2017-Dec-10 10:30N 53°33' E 009°53'2 3.2
2017-Dec-10 10:00N 53°32' E 009°55'1 1.6
2017-Dec-10 09:30N 53°33' E 009°55'0 0.0
2017-Dec-10 09:00N 53°33' E 009°55'0 0.0
2017-Dec-10 08:30N 53°33' E 009°55'0 0.0
2017-Dec-10 08:00N 53°33' E 009°55'0 0.0
2017-Dec-10 07:31N 53°33' E 009°55'0 0.0
2017-Dec-10 07:00N 53°33' E 009°55'0 0.3
2017-Dec-10 06:30N 53°33' E 009°56'1 1.9
2017-Dec-10 06:00N 53°33' E 009°57'0 0.9
2017-Dec-10 05:30N 53°32' E 009°56'1 1.8
2017-Dec-10 05:00N 53°33' E 009°55'0 0.5
2017-Dec-10 04:30N 53°33' E 009°55'0 0.0
2017-Dec-10 04:01N 53°33' E 009°55'0 0.0
2017-Dec-10 03:30N 53°33' E 009°55'0 0.0
2017-Dec-10 03:00N 53°33' E 009°55'0 0.0
2017-Dec-10 02:31N 53°33' E 009°55'1 1.4
2017-Dec-10 02:01N 53°32' E 009°54'1 1.1
2017-Dec-10 01:31N 53°32' E 009°55'1 1.6
2017-Dec-10 01:00N 53°33' E 009°55'0 0.0
2017-Dec-10 00:30N 53°33' E 009°55'0 0.0
2017-Dec-10 00:00N 53°33' E 009°55'0 0.0
2017-Dec-09 23:30N 53°33' E 009°55'0 0.0
2017-Dec-09 23:00N 53°33' E 009°55'0 0.0
2017-Dec-09 22:30N 53°33' E 009°55'0 0.0
2017-Dec-09 22:00N 53°33' E 009°55'0 0.0
2017-Dec-09 21:30N 53°33' E 009°55'0 0.0
2017-Dec-09 21:00N 53°33' E 009°55'0 0.0
2017-Dec-09 20:30N 53°33' E 009°55'0 0.0
2017-Dec-09 20:00N 53°33' E 009°55'0 0.0
2017-Dec-09 19:30N 53°33' E 009°55'0 0.0
2017-Dec-09 19:00N 53°33' E 009°55'0 0.0
2017-Dec-09 18:31N 53°33' E 009°55'0 0.0
2017-Dec-09 18:00N 53°33' E 009°55'0 0.0
2017-Dec-09 17:30N 53°33' E 009°55'0 0.0
2017-Dec-09 17:00N 53°33' E 009°55'0 0.0
2017-Dec-09 16:31N 53°33' E 009°55'0 0.0
2017-Dec-09 16:00N 53°33' E 009°55'0 0.0
2017-Dec-09 15:30N 53°33' E 009°55'0 0.0
2017-Dec-09 15:00N 53°33' E 009°55'0 0.0
2017-Dec-09 14:30N 53°33' E 009°55'0 0.0
2017-Dec-09 14:00N 53°33' E 009°55'0 0.0
2017-Dec-09 13:31N 53°33' E 009°55'0 0.0
2017-Dec-09 13:00N 53°33' E 009°55'0 0.0
2017-Dec-09 12:30N 53°33' E 009°55'0 0.0
2017-Dec-09 12:00N 53°33' E 009°55'0 0.0
2017-Dec-09 11:31N 53°33' E 009°55'0 0.0
2017-Dec-09 11:00N 53°33' E 009°55'0 0.0
2017-Dec-09 10:30N 53°33' E 009°55'0 0.0
2017-Dec-09 10:00N 53°33' E 009°55'0 0.0
2017-Dec-09 09:30N 53°33' E 009°55'3 5.4
2017-Dec-09 09:01N 53°30' E 009°58'0 0.1
2017-Dec-09 08:31N 53°30' E 009°58'1 1.6
2017-Dec-09 08:01N 53°31' E 009°57'3 5.9
2017-Dec-09 07:31N 53°33' E 009°53'1 2.3
2017-Dec-09 07:00N 53°33' E 009°51'3 6.5
2017-Dec-09 06:31N 53°33' E 009°56'2 4.4
2017-Dec-09 06:00N 53°33' E 009°53'2 3.3
2017-Dec-09 05:30N 53°33' E 009°55'0 0.0
2017-Dec-09 05:00N 53°33' E 009°55'0 0.0
2017-Dec-09 04:30N 53°33' E 009°55'2 3.5
2017-Dec-09 04:00N 53°31' E 009°56'0 0.5
2017-Dec-09 03:30N 53°31' E 009°56'2 3.1
2017-Dec-09 03:01N 53°33' E 009°55'0 0.0
2017-Dec-09 02:30N 53°33' E 009°55'0 0.0
2017-Dec-09 02:00N 53°33' E 009°55'0 0.0
2017-Dec-09 01:30N 53°33' E 009°55'0 0.0
2017-Dec-09 01:00N 53°33' E 009°55'0 0.0
2017-Dec-09 00:30N 53°33' E 009°55'0 0.0
2017-Dec-09 00:00N 53°33' E 009°55'0 0.0
2017-Dec-08 23:30N 53°33' E 009°55'0 0.0
2017-Dec-08 23:00N 53°33' E 009°55'0 0.0
2017-Dec-08 22:30N 53°33' E 009°55'0 0.0
2017-Dec-08 22:00N 53°33' E 009°55'0 0.0
2017-Dec-08 21:30N 53°33' E 009°55'0 0.0
2017-Dec-08 21:00N 53°33' E 009°55'0 0.0
2017-Dec-08 20:30N 53°33' E 009°55'0 0.0
2017-Dec-08 20:00N 53°33' E 009°55'0 0.0
2017-Dec-08 19:31N 53°33' E 009°55'0 0.0
2017-Dec-08 19:00N 53°33' E 009°55'0 0.0
2017-Dec-08 18:30N 53°33' E 009°55'0 0.0
2017-Dec-08 18:00N 53°33' E 009°55'0 0.0
2017-Dec-08 17:30N 53°33' E 009°55'0 0.0
2017-Dec-08 17:00N 53°33' E 009°55'0 0.0
2017-Dec-08 16:31N 53°33' E 009°55'0 0.0
2017-Dec-08 16:00N 53°33' E 009°55'0 0.0
2017-Dec-08 15:30N 53°33' E 009°55'0 0.0
2017-Dec-08 15:00N 53°33' E 009°55'0 0.0
2017-Dec-08 14:30N 53°33' E 009°55'0 0.0
2017-Dec-08 14:00N 53°33' E 009°55'1 1.4
2017-Dec-08 13:30N 53°32' E 009°54'0 0.4
2017-Dec-08 13:00N 53°32' E 009°54'1 1.7
2017-Dec-08 12:30N 53°33' E 009°55'0 0.0
2017-Dec-08 12:01N 53°33' E 009°55'0 0.0
2017-Dec-08 11:30N 53°33' E 009°55'0 0.0
2017-Dec-08 11:00N 53°33' E 009°55'1 1.9
2017-Dec-08 10:31N 53°33' E 009°54'1 2.8
2017-Dec-08 10:00N 53°32' E 009°56'1 1.9
2017-Dec-08 09:30N 53°33' E 009°55'0 0.0
2017-Dec-08 09:01N 53°33' E 009°55'1 1.2
2017-Dec-08 08:30N 53°32' E 009°54'0 0.7
2017-Dec-08 08:00N 53°32' E 009°55'1 1.2
2017-Dec-08 07:30N 53°32' E 009°55'0 0.5
2017-Dec-08 07:00N 53°32' E 009°55'0 0.7
2017-Dec-08 06:31N 53°32' E 009°55'2 3.6
2017-Dec-08 06:00N 53°33' E 009°52'1 2.7
2017-Dec-08 05:30N 53°33' E 009°54'1 1.5
2017-Dec-08 05:00N 53°33' E 009°55'0 0.0
2017-Dec-08 04:30N 53°33' E 009°55'0 0.0
2017-Dec-08 04:00N 53°33' E 009°55'0 0.0
2017-Dec-08 03:31N 53°33' E 009°55'0 0.0
2017-Dec-08 03:01N 53°33' E 009°55'0 0.0
2017-Dec-08 02:30N 53°33' E 009°55'0 0.0
2017-Dec-08 02:00N 53°33' E 009°55'0 0.0
2017-Dec-08 01:30N 53°33' E 009°55'0 0.0
2017-Dec-08 01:00N 53°33' E 009°55'0 0.0
2017-Dec-08 00:31N 53°33' E 009°55'0 0.0
2017-Dec-08 00:00N 53°33' E 009°55'0 0.0
2017-Dec-07 23:30N 53°33' E 009°55'0 0.0
2017-Dec-07 23:00N 53°33' E 009°55'0 0.0
2017-Dec-07 22:31N 53°33' E 009°55'0 0.0
2017-Dec-07 22:01N 53°33' E 009°55'0 0.0
2017-Dec-07 21:31N 53°33' E 009°55'0 0.0
2017-Dec-07 21:00N 53°33' E 009°55'0 0.0
2017-Dec-07 20:30N 53°33' E 009°55'0 0.0
2017-Dec-07 20:01N 53°33' E 009°55'2 3.6
2017-Dec-07 19:30N 53°31' E 009°57'1 1.9
2017-Dec-07 19:01N 53°30' E 009°58'0 0.0
2017-Dec-07 18:31N 53°30' E 009°58'0 0.8
2017-Dec-07 18:01N 53°30' E 009°57'0 0.1
2017-Dec-07 17:31N 53°30' E 009°57'2 3.6
2017-Dec-07 17:01N 53°32' E 009°56'1 1.8
2017-Dec-07 16:31N 53°33' E 009°55'0 0.0
2017-Dec-07 16:01N 53°33' E 009°55'0 0.0
2017-Dec-07 15:30N 53°33' E 009°55'0 0.0
2017-Dec-07 15:01N 53°33' E 009°55'0 0.0
2017-Dec-07 14:30N 53°33' E 009°55'0 0.0
2017-Dec-07 14:00N 53°33' E 009°55'0 0.0
2017-Dec-07 13:30N 53°33' E 009°55'0 0.0
2017-Dec-07 13:00N 53°33' E 009°55'0 0.0
2017-Dec-07 12:31N 53°33' E 009°55'0 0.0
2017-Dec-07 12:00N 53°33' E 009°55'0 0.0
2017-Dec-07 11:30N 53°33' E 009°55'0 0.0
2017-Dec-07 11:00N 53°33' E 009°55'0 0.0
2017-Dec-07 10:30N 53°33' E 009°55'0 0.0
2017-Dec-07 10:00N 53°33' E 009°55'  

Dump ship's entire track history